KTLH/TLH METAR and TAF weather

Enter ICAO airport designator
Station Type Date Time Source
KTLH METAR 2019/02/20 23:53 UTC NOAA

KTLH 202353Z 15003KT 10SM OVC009 22/21 A3005 RMK AO2 CIG 008V014 SLP176 T02220211 10244 20211 53005


Station Type Date Time Source
KTLH Decoded METAR 2019/02/20 23:53 UTC NOAA

TALLAHASSEE REGIONAL AIRPORT , FL, United States (KTLH) 30-24N 84-21W 16M
Feb 20, 2019 - 06:53 PM EST / 2019.02.20 2353 UTC
Wind: from the SSE (150 degrees) at 3 MPH (3 KT):0
Visibility: 10 mile(s):0
Sky conditions: overcast
Temperature: 72.0 F (22.2 C)
Dew Point: 70.0 F (21.1 C)
Relative Humidity: 93%
Pressure (altimeter): 30.05 in. Hg (1017 hPa)
Pressure tendency: 0.01 inches (0.5 hPa) higher than three hours ago
ob: KTLH 202353Z 15003KT 10SM OVC009 22/21 A3005 RMK AO2 CIG 008V014 SLP176 T02220211 10244 20211 53005
cycle: 0

Station Type Date Time Source
KTLH TAF 2019/02/20 18:28 UTC NOAA

TAF KTLH 201726Z 2018/2118 15007KT P6SM OVC012
FM202000 16008KT P6SM BKN022
FM202300 16007KT P6SM SCT030
FM210200 15003KT 3SM BR OVC008
TEMPO 2109/2113 1SM BR OVC002
FM211500 17008KT P6SM BKN025


Example: see airport list